Time;durP1;ratioP1;P1;durP2;ratioP2;P2;SDS_P1;SDS_P2;PMS_P1;PMS_P2;Temp;Humidity;BMP_temperature;BMP_pressure;BME280_temperature;BME280_humidity;BME280_pressure;Samples;Min_cycle;Max_cycle;Signal;HPM_P1;HPM_P2
2021/01/10 00:00:42;;;;;;;14.70;11.88;;;;;;;9.82;49.87;99864.17;1757811;81;21525;-68
2021/01/10 00:05:44;;;;;;;13.10;11.25;;;;;;;9.87;49.87;99862.86;1828262;76;28123;-67
2021/01/10 00:08:12;;;;;;;16.97;12.20;;;;;;;9.77;49.96;99862.99;1779353;78;21031;-68
2021/01/10 00:10:41;;;;;;;14.47;11.22;;;;;;;9.79;49.97;99873.80;1789529;78;21019;-68
2021/01/10 00:13:10;;;;;;;14.25;10.80;;;;;;;9.80;49.94;99874.13;1770848;80;21173;-69
2021/01/10 00:15:39;;;;;;;15.23;11.28;;;;;;;9.80;49.91;99871.47;1740357;80;21048;-69
2021/01/10 00:18:06;;;;;;;14.15;11.03;;;;;;;9.82;49.92;99876.63;1744660;80;21366;-69
2021/01/10 00:20:35;;;;;;;14.80;11.38;;;;;;;9.81;49.91;99880.25;1746286;80;21159;-69
2021/01/10 00:23:03;;;;;;;14.93;11.88;;;;;;;9.83;49.86;99880.92;1751306;80;21372;-69
2021/01/10 00:25:32;;;;;;;15.80;11.70;;;;;;;9.83;49.87;99882.25;1749109;79;21642;-69
2021/01/10 00:27:59;;;;;;;15.75;12.45;;;;;;;9.83;49.88;99888.88;1746132;80;21175;-69
2021/01/10 00:30:27;;;;;;;14.13;10.72;;;;;;;9.83;49.86;99885.75;1744664;79;21782;-69
2021/01/10 00:32:56;;;;;;;14.65;11.15;;;;;;;9.84;49.85;99893.21;1753867;80;21158;-70
2021/01/10 00:35:24;;;;;;;15.65;11.33;;;;;;;9.83;49.85;99892.39;1746297;80;22241;-70
2021/01/10 00:37:54;;;;;;;16.37;12.58;;;;;;;9.83;49.84;99891.06;1747612;80;21206;-70
2021/01/10 00:40:23;;;;;;;14.07;11.10;;;;;;;9.82;49.85;99893.36;1743762;80;21199;-69
2021/01/10 00:42:50;;;;;;;14.38;11.93;;;;;;;9.83;49.86;99888.88;1739862;81;21346;-69
2021/01/10 00:45:18;;;;;;;15.43;11.63;;;;;;;9.83;49.83;99887.55;1740476;81;21150;-69
2021/01/10 00:47:47;;;;;;;16.57;12.55;;;;;;;9.83;49.87;99877.80;1757265;80;21270;-68
2021/01/10 00:50:18;;;;;;;13.88;11.10;;;;;;;9.83;49.84;99876.47;1743592;80;21158;-69
2021/01/10 00:52:46;;;;;;;13.05;11.53;;;;;;;9.84;49.82;99885.25;1732363;81;21169;-69
2021/01/10 00:55:13;;;;;;;13.25;10.53;;;;;;;9.84;49.81;99883.92;1754803;80;21126;-69
2021/01/10 00:57:41;;;;;;;13.88;11.08;;;;;;;9.83;49.81;99872.48;1746761;79;21121;-69
2021/01/10 01:00:12;;;;;;;13.58;11.30;;;;;;;9.84;49.80;99885.25;1757186;80;21404;-69
2021/01/10 01:02:41;;;;;;;12.95;10.53;;;;;;;9.85;49.78;99882.95;1777022;79;21189;-69
2021/01/10 01:05:11;;;;;;;13.95;11.25;;;;;;;9.84;49.78;99883.92;1779369;77;21138;-69
2021/01/10 01:07:39;;;;;;;13.45;11.68;;;;;;;9.85;49.76;99886.92;1781064;77;21158;-68
2021/01/10 01:10:08;;;;;;;13.03;10.75;;;;;;;9.86;49.79;99893.06;1753857;79;21166;-68
2021/01/10 01:12:37;;;;;;;14.05;10.95;;;;;;;9.84;49.78;99890.05;1797764;79;21557;-71
2021/01/10 01:15:07;;;;;;;14.35;10.60;;;;;;;9.85;49.78;99882.95;1787571;79;21153;-68
2021/01/10 01:17:36;;;;;;;13.32;10.48;;;;;;;9.84;49.78;99891.38;1791862;79;21579;-70
2021/01/10 01:20:05;;;;;;;13.32;10.68;;;;;;;9.86;49.77;99884.59;1797435;77;21178;-69
2021/01/10 01:22:34;;;;;;;16.23;11.63;;;;;;;9.85;49.75;99885.60;1790076;77;21590;-67
2021/01/10 01:25:02;;;;;;;13.88;10.45;;;;;;;9.85;49.77;99881.63;1776284;79;21448;-69
2021/01/10 01:27:34;;;;;;;15.65;11.83;;;;;;;9.86;49.76;99879.79;1797776;79;21121;-69
2021/01/10 01:30:05;;;;;;;13.60;10.50;;;;;;;9.85;49.77;99881.63;1783143;77;21142;-68
2021/01/10 01:32:35;;;;;;;13.45;10.30;;;;;;;9.85;49.76;99878.97;1776086;79;21146;-69
2021/01/10 01:35:05;;;;;;;13.60;10.13;;;;;;;9.84;49.75;99881.27;1781273;79;21091;-68
2021/01/10 01:37:35;;;;;;;11.73;10.00;;;;;;;9.83;49.78;99883.57;1801291;77;21791;-68
2021/01/10 01:40:06;;;;;;;13.95;10.23;;;;;;;9.84;49.75;99879.95;1798856;77;21125;-69
2021/01/10 01:42:34;;;;;;;13.15;10.18;;;;;;;9.83;49.78;99883.57;1788081;79;21114;-68
2021/01/10 01:45:06;;;;;;;14.23;10.98;;;;;;;9.84;49.77;99882.59;1799871;79;21149;-69
2021/01/10 01:47:33;;;;;;;13.15;10.53;;;;;;;9.83;49.79;99878.27;1785856;79;21137;-68
2021/01/10 01:50:07;;;;;;;12.58;10.35;;;;;;;9.83;49.75;99888.41;1773260;80;21389;-68
2021/01/10 01:52:35;;;;;;;14.33;11.38;;;;;;;9.83;49.77;99880.92;1752800;80;21685;-68
2021/01/10 01:55:07;;;;;;;14.15;10.93;;;;;;;9.83;49.74;99880.45;1751924;80;21175;-68
2021/01/10 01:57:35;;;;;;;15.13;11.38;;;;;;;9.83;49.78;99888.41;1760294;79;21550;-68
2021/01/10 02:00:05;;;;;;;12.88;10.70;;;;;;;9.83;49.75;99884.42;1766575;79;21547;-69
2021/01/10 02:02:34;;;;;;;14.10;10.98;;;;;;;9.84;49.75;99887.91;1781997;79;21262;-68
2021/01/10 02:05:10;;;;;;;14.10;10.75;;;;;;;9.84;49.75;99894.54;1787794;77;21329;-70
2021/01/10 02:07:51;;;;;;;14.68;11.60;;;;;;;9.83;49.75;99892.39;1751137;79;21154;-69
2021/01/10 02:10:15;;;;;;;13.50;10.90;;;;;;;9.83;49.74;99892.86;1786731;77;21540;-68
2021/01/10 02:12:57;;;;;;;11.97;10.03;;;;;;;9.83;49.78;99894.19;1779227;79;21170;-68
2021/01/10 02:15:28;;;;;;;14.50;11.73;;;;;;;9.83;49.78;99895.52;1793112;79;21252;-70
2021/01/10 02:17:56;;;;;;;14.13;10.55;;;;;;;9.82;49.77;99893.36;1785357;77;21123;-67
2021/01/10 02:20:32;;;;;;;12.60;10.40;;;;;;;9.81;49.79;99902.33;1781347;79;21088;-68
2021/01/10 02:23:20;;;;;;;12.55;10.80;;;;;;;9.78;49.77;99896.50;1776518;77;21161;-69
2021/01/10 02:25:49;;;;;;;13.25;10.53;;;;;;;9.82;49.76;99905.80;1755749;79;21154;-69
2021/01/10 02:28:22;;;;;;;14.25;11.10;;;;;;;9.82;49.79;99903.16;1774603;77;21429;-69
2021/01/10 02:30:51;;;;;;;14.93;11.38;;;;;;;9.81;49.79;99908.11;1804830;77;21156;-69
2021/01/10 02:33:43;;;;;;;13.00;11.00;;;;;;;9.81;49.78;99906.31;1802833;79;21129;-69
2021/01/10 02:36:39;;;;;;;13.58;11.05;;;;;;;9.81;49.79;99906.78;1786418;79;21181;-69
2021/01/10 02:39:20;;;;;;;13.40;10.85;;;;;;;9.79;49.80;99896.83;1729374;80;21177;-68
2021/01/10 02:41:52;;;;;;;14.58;10.88;;;;;;;9.78;49.82;99902.64;1741291;79;21375;-67
2021/01/10 02:44:53;;;;;;;14.00;11.05;;;;;;;9.77;49.83;99901.46;1749859;80;21582;-68
2021/01/10 02:47:21;;;;;;;15.53;11.57;;;;;;;9.78;49.84;99899.98;1731347;81;21532;-68
2021/01/10 02:49:48;;;;;;;13.75;10.50;;;;;;;9.76;49.86;99896.66;1755369;80;21187;-68
2021/01/10 02:52:16;;;;;;;12.05;10.03;;;;;;;9.77;49.86;99897.48;1740158;79;21205;-69
2021/01/10 02:54:44;;;;;;;13.95;10.93;;;;;;;9.77;49.85;99897.48;1751850;80;21197;-69
2021/01/10 02:57:31;;;;;;;12.37;10.48;;;;;;;9.77;49.84;99890.38;1746217;80;21202;-68
2021/01/10 02:59:59;;;;;;;12.70;10.53;;;;;;;9.78;49.84;99896.00;1754354;81;21175;-68
2021/01/10 03:02:27;;;;;;;14.25;10.45;;;;;;;9.78;49.85;99898.66;1763990;79;21549;-68
2021/01/10 03:04:56;;;;;;;13.55;11.05;;;;;;;9.78;49.84;99899.98;1747364;81;21162;-69
2021/01/10 03:07:24;;;;;;;14.35;11.48;;;;;;;9.79;49.85;99896.83;1765683;80;22213;-69
2021/01/10 03:09:51;;;;;;;14.93;10.98;;;;;;;9.79;49.83;99897.68;1757975;81;21129;-69
2021/01/10 03:15:00;;;;;;;14.35;11.88;;;;;;;9.84;49.84;99893.21;1835763;77;28708;-67
2021/01/10 03:17:47;;;;;;;12.65;10.13;;;;;;;9.80;49.80;99902.48;1815155;78;21052;-68
2021/01/10 03:20:20;;;;;;;13.32;10.35;;;;;;;9.80;49.81;99890.55;1806154;78;21185;-67
2021/01/10 03:22:49;;;;;;;14.75;10.60;;;;;;;9.79;49.81;99896.35;1802671;77;21088;-68
2021/01/10 03:25:19;;;;;;;13.83;11.00;;;;;;;9.81;49.86;99900.15;1802043;78;21147;-67
2021/01/10 03:27:47;;;;;;;13.95;11.70;;;;;;;9.80;49.82;99894.02;1797616;78;21104;-67
2021/01/10 03:30:17;;;;;;;14.85;11.00;;;;;;;9.81;49.81;99899.68;1803720;78;21147;-68
2021/01/10 03:32:45;;;;;;;14.35;10.78;;;;;;;9.81;49.81;99898.83;1818023;78;22269;-69
2021/01/10 03:35:13;;;;;;;12.88;10.35;;;;;;;9.81;49.79;99901.48;1815954;78;21208;-68
2021/01/10 03:37:41;;;;;;;14.28;10.55;;;;;;;9.82;49.78;99900.00;1793402;78;21142;-69
2021/01/10 03:40:10;;;;;;;11.75;9.98;;;;;;;9.82;49.78;99903.98;1810550;78;21155;-68
2021/01/10 03:42:38;;;;;;;13.20;10.50;;;;;;;9.83;49.77;99896.84;1797492;78;21605;-69
2021/01/10 03:45:07;;;;;;;14.40;11.65;;;;;;;9.83;49.75;99898.17;1797937;78;21206;-68
2021/01/10 03:47:35;;;;;;;13.45;11.33;;;;;;;9.83;49.77;99894.19;1779123;80;21564;-68
2021/01/10 03:50:05;;;;;;;14.75;10.82;;;;;;;9.83;49.73;99897.70;1803101;78;21135;-69
2021/01/10 03:52:32;;;;;;;14.65;11.12;;;;;;;9.84;49.75;99898.52;1800894;78;21155;-69
2021/01/10 03:55:06;;;;;;;14.98;10.93;;;;;;;9.83;49.75;99892.86;1809326;78;21326;-68
2021/01/10 03:57:36;;;;;;;13.32;11.05;;;;;;;9.83;49.74;99894.19;1794379;78;21374;-68
2021/01/10 04:00:06;;;;;;;13.60;11.18;;;;;;;9.83;49.72;99905.66;1801585;78;21607;-68
2021/01/10 04:02:34;;;;;;;14.20;11.30;;;;;;;9.83;49.74;99904.33;1798398;78;22006;-68
2021/01/10 04:05:07;;;;;;;15.60;11.85;;;;;;;9.83;49.73;99908.31;1805009;78;21667;-68
2021/01/10 04:07:35;;;;;;;14.90;12.03;;;;;;;9.83;49.72;99905.66;1776555;78;21128;-67
2021/01/10 04:10:05;;;;;;;15.65;11.88;;;;;;;9.84;49.73;99905.15;1792835;78;21508;-67
2021/01/10 04:12:32;;;;;;;14.68;11.50;;;;;;;9.83;49.70;99912.29;1799398;78;21162;-69
2021/01/10 04:14:59;;;;;;;13.78;11.40;;;;;;;9.85;49.70;99908.16;1811033;78;21111;-67
2021/01/10 04:17:27;;;;;;;15.18;11.97;;;;;;;9.84;49.72;99906.48;1802771;78;21234;-68
2021/01/10 04:19:58;;;;;;;13.55;10.82;;;;;;;9.86;49.72;99910.30;1802896;78;22440;-68
2021/01/10 04:22:26;;;;;;;13.45;11.10;;;;;;;9.86;49.68;99915.11;1802044;78;22803;-68
2021/01/10 04:24:57;;;;;;;13.20;10.68;;;;;;;9.85;49.69;99917.44;1802920;78;21155;-68
2021/01/10 04:27:27;;;;;;;15.15;11.12;;;;;;;9.85;49.70;99913.46;1801066;78;21198;-68
2021/01/10 04:29:55;;;;;;;12.70;10.00;;;;;;;9.84;49.67;99911.28;1818755;78;21166;-67
2021/01/10 04:32:22;;;;;;;16.48;11.95;;;;;;;9.85;49.69;99916.11;1799345;78;21163;-68
2021/01/10 04:34:54;;;;;;;14.58;11.48;;;;;;;9.85;49.66;99918.77;1795175;78;21198;-68
2021/01/10 04:37:23;;;;;;;15.13;11.28;;;;;;;9.85;49.69;99922.75;1808813;78;21152;-68
2021/01/10 04:39:53;;;;;;;14.50;11.28;;;;;;;9.86;49.70;99925.72;1793607;78;21647;-67
2021/01/10 04:42:22;;;;;;;11.75;10.40;;;;;;;9.85;49.66;99926.73;1801208;78;21131;-67
2021/01/10 04:44:50;;;;;;;15.35;12.47;;;;;;;9.86;49.70;99938.98;1802861;78;21155;-68
2021/01/10 04:47:20;;;;;;;13.58;11.18;;;;;;;9.85;49.68;99937.34;1819860;78;21366;-67
2021/01/10 04:49:48;;;;;;;14.83;10.58;;;;;;;9.86;49.70;99942.97;1809617;78;21195;-66
2021/01/10 04:52:20;;;;;;;13.88;10.88;;;;;;;9.86;49.69;99945.63;1798172;78;21202;-68
2021/01/10 04:54:48;;;;;;;14.63;11.28;;;;;;;9.87;49.68;99945.13;1793168;78;21171;-69
2021/01/10 04:57:16;;;;;;;13.58;10.55;;;;;;;9.87;49.69;99945.98;1795259;78;21166;-67
2021/01/10 04:59:44;;;;;;;14.80;10.95;;;;;;;9.87;49.68;99948.63;1755913;78;21388;-67
2021/01/10 05:02:11;;;;;;;14.83;11.15;;;;;;;9.87;49.69;99954.41;1813771;78;21603;-68
2021/01/10 05:04:39;;;;;;;13.68;10.63;;;;;;;9.87;49.67;99956.59;1802513;78;21167;-67
2021/01/10 05:07:07;;;;;;;13.05;10.85;;;;;;;9.87;49.67;99961.90;1749727;79;21587;-67
2021/01/10 05:09:34;;;;;;;14.50;11.57;;;;;;;9.87;49.67;99957.92;1798826;78;21134;-68
2021/01/10 05:12:05;;;;;;;14.23;11.50;;;;;;;9.87;49.67;99960.57;1785834;78;21446;-68
2021/01/10 05:14:32;;;;;;;11.95;10.28;;;;;;;9.88;49.64;99961.39;1812337;78;21198;-67
2021/01/10 05:17:00;;;;;;;13.50;10.90;;;;;;;9.88;49.64;99962.72;1809189;78;21139;-68
2021/01/10 05:19:29;;;;;;;15.03;12.43;;;;;;;9.88;49.65;99964.88;1808665;78;21599;-68
2021/01/10 05:22:05;;;;;;;14.10;11.08;;;;;;;9.88;49.63;99970.17;1804402;78;26565;-68
2021/01/10 05:24:30;;;;;;;14.30;11.20;;;;;;;9.87;49.65;99971.19;1791995;78;21395;-67
2021/01/10 05:26:59;;;;;;;15.08;11.65;;;;;;;9.88;49.66;99975.98;1796938;78;21148;-69
2021/01/10 05:29:28;;;;;;;14.47;11.28;;;;;;;9.88;49.66;99974.66;1798517;78;21128;-68
2021/01/10 05:31:55;;;;;;;13.83;10.48;;;;;;;9.87;49.68;99972.98;1766255;80;21167;-67
2021/01/10 05:34:26;;;;;;;15.13;11.33;;;;;;;9.87;49.69;99977.81;1812332;78;21139;-67
2021/01/10 05:36:56;;;;;;;16.15;11.63;;;;;;;9.87;49.71;99976.49;1827338;78;21367;-69
2021/01/10 05:39:27;;;;;;;14.05;10.58;;;;;;;9.88;49.66;99983.45;1817957;78;21153;-68
2021/01/10 05:42:02;;;;;;;15.28;11.55;;;;;;;9.87;49.64;99979.62;1814049;78;21158;-67
2021/01/10 05:44:50;;;;;;;15.20;11.50;;;;;;;9.87;49.67;99987.11;1832339;78;21158;-68
2021/01/10 05:47:19;;;;;;;15.68;11.43;;;;;;;9.87;49.64;99988.44;1823515;78;21082;-68
2021/01/10 05:49:54;;;;;;;12.88;10.53;;;;;;;9.86;49.68;99985.93;1811287;78;21551;-68
2021/01/10 05:52:22;;;;;;;14.65;10.90;;;;;;;9.86;49.72;99996.04;1822832;78;21172;-68
2021/01/10 05:54:55;;;;;;;13.13;10.35;;;;;;;9.86;49.70;99993.39;1795812;79;21135;-68
2021/01/10 05:57:30;;;;;;;12.75;10.72;;;;;;;9.86;49.70;99987.25;1817979;78;21187;-69
2021/01/10 05:59:57;;;;;;;13.78;10.88;;;;;;;9.86;49.69;100002.67;1819083;78;21131;-69
2021/01/10 06:02:37;;;;;;;14.03;10.80;;;;;;;9.85;49.71;99995.72;1817909;78;21626;-68
2021/01/10 06:05:18;;;;;;;15.40;11.55;;;;;;;9.86;49.71;100000.52;1829959;78;21647;-68
2021/01/10 06:07:47;;;;;;;14.00;9.80;;;;;;;9.85;49.70;100002.36;1815026;78;21705;-70
2021/01/10 06:10:28;;;;;;;13.43;10.98;;;;;;;9.83;49.73;100005.16;1818053;78;21154;-69
2021/01/10 06:13:05;;;;;;;13.98;10.60;;;;;;;9.84;49.75;100004.66;1822912;77;21143;-68
2021/01/10 06:15:34;;;;;;;13.70;10.98;;;;;;;9.84;49.72;100005.98;1799651;79;21328;-68
2021/01/10 06:18:05;;;;;;;15.40;10.75;;;;;;;9.83;49.73;100012.27;1808972;78;21148;-69
2021/01/10 06:20:33;;;;;;;14.75;10.90;;;;;;;9.84;49.73;100012.61;1807057;78;21796;-68
2021/01/10 06:23:04;;;;;;;13.10;10.50;;;;;;;9.84;49.74;100013.94;1808119;78;21606;-68
2021/01/10 06:25:37;;;;;;;13.13;10.45;;;;;;;9.84;49.72;100017.92;1825412;77;21594;-67
2021/01/10 06:28:16;;;;;;;14.78;11.43;;;;;;;9.84;49.72;100024.05;1814848;78;21305;-67
2021/01/10 06:30:53;;;;;;;14.75;11.33;;;;;;;9.84;49.74;100023.23;1826300;78;21178;-68
2021/01/10 06:33:34;;;;;;;14.50;10.68;;;;;;;9.88;49.74;100027.23;1804048;77;28191;-68
2021/01/10 06:36:06;;;;;;;14.43;11.48;;;;;;;9.85;49.73;100024.91;1792264;79;21574;-69
2021/01/10 06:38:35;;;;;;;12.98;10.30;;;;;;;9.84;49.75;100035.17;1805714;78;22278;-69
2021/01/10 06:41:17;;;;;;;14.95;11.33;;;;;;;9.84;49.74;100032.02;1821864;78;21167;-67
2021/01/10 06:43:45;;;;;;;14.55;10.65;;;;;;;9.86;49.73;100039.00;1825449;78;21174;-68
2021/01/10 06:46:12;;;;;;;14.58;10.80;;;;;;;9.84;49.72;100038.65;1802809;78;21626;-67
2021/01/10 06:48:40;;;;;;;14.65;10.55;;;;;;;9.86;49.73;100049.11;1818517;78;21138;-67
2021/01/10 06:51:07;;;;;;;15.20;10.88;;;;;;;9.85;49.72;100044.81;1821218;78;21364;-68
2021/01/10 06:53:34;;;;;;;13.20;10.00;;;;;;;9.87;49.72;100053.45;1799842;78;21123;-68
2021/01/10 06:56:02;;;;;;;14.68;10.78;;;;;;;9.88;49.69;100055.09;1776233;78;21206;-67
2021/01/10 06:58:30;;;;;;;13.88;11.00;;;;;;;9.89;49.69;100060.75;1776661;78;21182;-67
2021/01/10 07:00:58;;;;;;;13.62;10.45;;;;;;;9.90;49.66;100062.41;1818953;78;21091;-69
2021/01/10 07:03:26;;;;;;;15.65;11.00;;;;;;;9.91;49.67;100059.25;1809681;78;21188;-67
2021/01/10 07:06:10;;;;;;;14.55;11.10;;;;;;;9.91;49.65;100062.76;1812194;78;21171;-67
2021/01/10 07:08:46;;;;;;;15.25;10.85;;;;;;;9.94;49.63;100061.60;1823059;78;21127;-67
2021/01/10 07:11:28;;;;;;;14.23;10.63;;;;;;;9.94;49.62;100069.56;1802465;78;21142;-67
2021/01/10 07:14:07;;;;;;;12.98;9.55;;;;;;;9.94;49.62;100069.06;1815554;78;21131;-68
2021/01/10 07:16:34;;;;;;;13.90;9.78;;;;;;;9.95;49.61;100076.55;1815713;78;21325;-68
2021/01/10 07:19:06;;;;;;;14.38;10.48;;;;;;;9.94;49.63;100066.41;1806691;78;21591;-67
2021/01/10 07:21:44;;;;;;;13.83;11.35;;;;;;;9.94;49.60;100075.70;1789215;79;21141;-68
2021/01/10 07:24:20;;;;;;;14.05;10.50;;;;;;;9.95;49.58;100081.36;1809820;79;21780;-68
2021/01/10 07:26:49;;;;;;;13.60;10.20;;;;;;;9.95;49.59;100082.69;1793022;79;21103;-67
2021/01/10 07:29:32;;;;;;;14.28;11.43;;;;;;;9.96;49.57;100089.64;1804712;79;21362;-68
2021/01/10 07:32:17;;;;;;;12.90;10.67;;;;;;;9.97;49.58;100089.17;1809989;79;21115;-69
2021/01/10 07:34:51;;;;;;;14.63;10.75;;;;;;;9.97;49.58;100091.83;1780659;79;21134;-69
2021/01/10 07:37:28;;;;;;;13.58;10.55;;;;;;;9.98;49.59;100096.12;1787721;79;21154;-68
2021/01/10 07:40:02;;;;;;;13.43;10.03;;;;;;;9.97;49.58;100092.65;1805002;77;21130;-67
2021/01/10 07:42:40;;;;;;;12.93;10.43;;;;;;;9.98;49.60;100091.64;1800590;79;21351;-67
2021/01/10 07:45:17;;;;;;;16.30;11.10;;;;;;;9.99;49.59;100091.17;1809272;79;21165;-69
2021/01/10 07:47:51;;;;;;;13.32;9.85;;;;;;;9.99;49.56;100089.34;1794881;79;21555;-68
2021/01/10 07:50:21;;;;;;;11.80;9.85;;;;;;;10.01;49.57;100089.19;1815156;79;21121;-67
2021/01/10 07:52:57;;;;;;;14.55;10.90;;;;;;;10.01;49.58;100091.84;1789952;79;21154;-67
2021/01/10 07:55:29;;;;;;;16.05;10.82;;;;;;;10.01;49.58;100091.34;1781539;79;21361;-67
2021/01/10 07:58:06;;;;;;;13.83;10.63;;;;;;;10.02;49.56;100091.70;1786173;79;21145;-68
2021/01/10 08:00:36;;;;;;;12.93;10.80;;;;;;;10.04;49.55;100095.03;1799517;79;21181;-69
2021/01/10 08:03:08;;;;;;;13.58;10.60;;;;;;;10.05;49.52;100098.51;1785627;79;21170;-69
2021/01/10 08:05:39;;;;;;;12.70;9.68;;;;;;;10.07;49.54;100099.69;1806325;77;21177;-68
2021/01/10 08:08:16;;;;;;;12.60;9.60;;;;;;;10.08;49.50;100103.98;1782547;79;21468;-67
2021/01/10 08:10:55;;;;;;;12.50;10.58;;;;;;;10.10;49.50;100107.32;1804780;79;21150;-68
2021/01/10 08:13:31;;;;;;;14.40;10.58;;;;;;;10.11;49.49;100109.00;1801340;79;21597;-68
2021/01/10 08:16:07;;;;;;;11.78;10.08;;;;;;;10.11;49.47;100111.66;1800544;79;21227;-68
2021/01/10 08:18:41;;;;;;;12.47;9.40;;;;;;;10.12;49.45;100110.17;1791962;79;21138;-67
2021/01/10 08:21:09;;;;;;;;;;;;;;;10.13;49.43;100111.00;1800085;77;21261;-68
2021/01/10 08:23:38;;;;;;;12.88;9.68;;;;;;;10.14;49.42;100110.00;1792880;79;20211;-67
2021/01/10 08:26:11;;;;;;;13.18;10.30;;;;;;;10.08;49.52;100107.97;1799362;77;21114;-69
2021/01/10 08:28:55;;;;;;;12.40;8.55;;;;;;;10.10;49.52;100113.95;1790596;79;21170;-68
2021/01/10 08:31:26;;;;;;;12.70;9.95;;;;;;;10.11;49.51;100110.33;1783133;79;21213;-69
2021/01/10 08:34:08;;;;;;;12.90;10.28;;;;;;;10.12;49.49;100111.98;1788885;77;21240;-69
2021/01/10 08:36:36;;;;;;;13.15;10.15;;;;;;;10.14;49.46;100103.36;1798085;79;21155;-69
2021/01/10 08:41:49;;;;;;;12.10;9.90;;;;;;;10.19;49.46;100115.68;1813853;76;28824;-68
2021/01/10 08:44:20;;;;;;;12.90;9.73;;;;;;;10.16;49.43;100116.84;1791460;79;21543;-70
2021/01/10 08:46:51;;;;;;;12.50;9.88;;;;;;;10.18;49.42;100115.36;1788708;77;21177;-68
2021/01/10 08:51:57;;;;;;;12.82;9.95;;;;;;;10.24;49.41;100114.22;1839555;77;28187;-69
2021/01/10 08:54:25;;;;;;;13.35;10.00;;;;;;;10.21;49.37;100112.38;1788272;79;21593;-70
2021/01/10 08:56:56;;;;;;;12.33;9.35;;;;;;;10.21;49.33;100108.39;1833890;77;21194;-69
2021/01/10 08:59:26;;;;;;;11.38;9.23;;;;;;;10.24;49.35;100113.40;1848009;77;21174;-68
2021/01/10 09:01:53;;;;;;;12.50;9.95;;;;;;;10.25;49.32;100120.36;1843352;77;22082;-69
2021/01/10 09:04:21;;;;;;;10.90;8.50;;;;;;;10.27;49.29;100114.90;1784303;79;21161;-70
2021/01/10 09:07:06;;;;;;;14.40;9.98;;;;;;;10.27;49.29;100110.91;1833838;77;21218;-71
2021/01/10 09:09:55;;;;;;;12.00;9.75;;;;;;;10.28;49.26;100110.77;1830995;77;23595;-72
2021/01/10 09:12:35;;;;;;;12.25;9.25;;;;;;;10.28;49.22;100105.45;1837414;77;21145;-71
2021/01/10 09:15:18;;;;;;;11.70;8.95;;;;;;;10.30;49.56;100106.62;1829636;77;21517;-70
2021/01/10 09:17:50;;;;;;;12.40;8.15;;;;;;;10.31;49.70;100103.00;1835937;76;21914;-71
2021/01/10 09:20:21;;;;;;;11.20;7.53;;;;;;;10.36;58.16;100098.88;1819885;77;21093;-69
2021/01/10 09:22:48;;;;;;;11.30;6.90;;;;;;;10.58;56.16;100101.97;1822660;77;21374;-71
2021/01/10 09:25:19;;;;;;;10.32;7.35;;;;;;;10.74;56.73;100098.06;1819580;77;21593;-71
2021/01/10 09:28:16;;;;;;;12.03;6.67;;;;;;;10.82;57.76;100103.91;1819024;77;21145;-71
2021/01/10 09:30:51;;;;;;;10.35;6.55;;;;;;;10.88;58.21;100097.95;1810447;78;21136;-70
2021/01/10 09:33:28;;;;;;;10.18;7.83;;;;;;;10.91;58.31;100098.11;1827994;77;22322;-69
2021/01/10 09:35:59;;;;;;;9.48;6.75;;;;;;;10.93;58.08;100097.45;1840405;77;21354;-70
2021/01/10 09:38:29;;;;;;;10.08;8.10;;;;;;;10.94;57.80;100102.61;1806294;77;21146;-69
2021/01/10 09:41:13;;;;;;;10.48;7.42;;;;;;;10.96;57.55;100097.14;1800200;78;21186;-68
2021/01/10 09:43:53;;;;;;;10.05;7.40;;;;;;;10.97;57.18;100100.97;1840655;75;21154;-71
2021/01/10 09:46:36;;;;;;;9.50;6.58;;;;;;;10.99;56.80;100105.63;1816998;78;21207;-70
2021/01/10 09:49:22;;;;;;;12.43;7.25;;;;;;;11.00;56.44;100102.46;1830606;77;22242;-68
2021/01/10 09:52:06;;;;;;;10.80;7.67;;;;;;;10.99;56.05;100099.45;1856192;77;21144;-72
2021/01/10 09:54:36;;;;;;;11.00;7.72;;;;;;;10.96;55.70;100100.62;1844376;77;21128;-71
2021/01/10 09:57:14;;;;;;;12.13;7.95;;;;;;;10.95;55.41;100098.97;1847669;77;21215;-69
2021/01/10 09:59:44;;;;;;;11.18;8.13;;;;;;;10.94;55.12;100098.63;1811752;77;21142;-69
2021/01/10 10:02:37;;;;;;;10.10;7.80;;;;;;;10.94;54.87;100100.45;1820042;77;21181;-69
2021/01/10 10:05:19;;;;;;;10.00;8.30;;;;;;;10.93;54.68;100094.79;1806523;77;21177;-70
2021/01/10 10:07:49;;;;;;;10.93;7.60;;;;;;;10.92;54.40;100096.62;1808411;78;21162;-69
2021/01/10 10:10:27;;;;;;;11.15;8.40;;;;;;;10.92;54.19;100100.61;1809412;78;21216;-71
2021/01/10 10:13:10;;;;;;;12.60;7.85;;;;;;;10.91;54.01;100097.60;1828837;77;21173;-70
2021/01/10 10:15:42;;;;;;;10.75;7.55;;;;;;;10.93;53.83;100097.45;1856698;77;21410;-68
2021/01/10 10:18:20;;;;;;;12.23;8.00;;;;;;;10.92;53.61;100096.62;1844082;77;21581;-69
2021/01/10 10:20:48;;;;;;;9.95;7.50;;;;;;;10.93;53.46;100096.12;1840825;77;21606;-68
2021/01/10 10:23:15;;;;;;;9.53;7.45;;;;;;;10.92;53.27;100095.30;1845431;77;21110;-68
2021/01/10 10:25:45;;;;;;;9.58;7.20;;;;;;;10.93;53.11;100100.11;1854438;77;21593;-68
2021/01/10 10:28:12;;;;;;;10.85;7.87;;;;;;;10.93;53.00;100096.97;1840805;77;21222;-69
2021/01/10 10:30:40;;;;;;;9.23;7.60;;;;;;;10.93;52.86;100092.98;1847169;77;21109;-69
2021/01/10 10:33:08;;;;;;;10.75;7.90;;;;;;;10.95;52.73;100092.80;1845983;77;21121;-69
2021/01/10 10:35:40;;;;;;;11.73;8.35;;;;;;;10.98;52.63;100096.48;1846816;77;21180;-69
2021/01/10 10:38:10;;;;;;;10.72;8.05;;;;;;;11.00;52.51;100091.32;1838104;76;21084;-67
2021/01/10 10:40:38;;;;;;;9.53;7.50;;;;;;;11.02;52.38;100091.99;1853768;77;21428;-65
2021/01/10 10:43:06;;;;;;;11.00;8.45;;;;;;;11.04;52.22;100090.50;1837663;77;21166;-68
2021/01/10 10:45:33;;;;;;;11.90;8.65;;;;;;;11.06;52.10;100093.83;1838999;77;21113;-67
2021/01/10 10:48:06;;;;;;;9.55;7.33;;;;;;;11.08;51.96;100094.50;1853348;77;21157;-71
2021/01/10 10:50:33;;;;;;;12.05;8.43;;;;;;;11.11;51.85;100096.02;1833867;77;21232;-70
2021/01/10 10:53:01;;;;;;;10.70;7.97;;;;;;;11.12;51.72;100095.83;1843844;77;21193;-71
2021/01/10 10:55:28;;;;;;;9.53;7.22;;;;;;;11.13;51.61;100094.85;1836073;77;21152;-68
2021/01/10 10:57:57;;;;;;;10.75;7.78;;;;;;;11.13;51.54;100091.37;1851036;77;21188;-69
2021/01/10 11:00:26;;;;;;;11.20;8.20;;;;;;;11.16;51.43;100087.89;1846444;77;21138;-70
2021/01/10 11:02:54;;;;;;;12.28;8.78;;;;;;;11.16;51.34;100091.02;1840847;76;21125;-68
2021/01/10 11:05:22;;;;;;;9.58;7.70;;;;;;;11.16;51.25;100085.70;1833077;77;23586;-68
2021/01/10 11:07:51;;;;;;;10.08;6.95;;;;;;;11.18;51.22;100086.38;1800640;78;21126;-70
2021/01/10 11:10:19;;;;;;;10.55;8.18;;;;;;;11.18;51.15;100082.38;1816624;78;21187;-68
2021/01/10 11:12:46;;;;;;;11.40;7.40;;;;;;;11.20;51.05;100079.92;1812666;77;21635;-69
2021/01/10 11:15:14;;;;;;;11.00;8.68;;;;;;;11.21;51.01;100084.22;1800933;78;21592;-69
2021/01/10 11:17:42;;;;;;;10.75;8.18;;;;;;;11.25;50.95;100090.55;1824883;76;21370;-69
2021/01/10 11:20:10;;;;;;;11.53;7.80;;;;;;;11.25;50.87;100094.55;1823797;77;21602;-68
2021/01/10 11:22:41;;;;;;;10.85;8.08;;;;;;;11.25;50.80;100090.05;1817327;77;21142;-67
2021/01/10 11:25:10;;;;;;;10.60;7.47;;;;;;;11.26;50.74;100090.88;1845971;77;21117;-67
2021/01/10 11:27:37;;;;;;;9.15;7.45;;;;;;;11.26;50.67;100093.53;1851985;77;21137;-68
2021/01/10 11:30:06;;;;;;;10.40;7.70;;;;;;;11.26;50.63;100094.86;1840271;77;21364;-67
2021/01/10 11:32:34;;;;;;;9.63;7.67;;;;;;;11.26;50.57;100098.85;1844322;77;21172;-67
2021/01/10 11:35:04;;;;;;;9.40;7.15;;;;;;;11.26;50.51;100098.37;1839727;77;21239;-65
2021/01/10 11:37:32;;;;;;;9.80;7.85;;;;;;;11.26;50.45;100094.86;1831846;77;21194;-67
2021/01/10 11:39:59;;;;;;;9.55;7.47;;;;;;;11.26;50.39;100097.52;1802793;76;21157;-66
2021/01/10 11:42:28;;;;;;;10.45;7.58;;;;;;;11.25;50.38;100099.86;1823842;77;21178;-67
2021/01/10 11:44:56;;;;;;;9.75;7.42;;;;;;;11.25;50.37;100098.03;1820118;78;21119;-67
2021/01/10 11:47:26;;;;;;;9.80;7.85;;;;;;;11.24;50.38;100100.34;1811585;77;21189;-68
2021/01/10 11:49:53;;;;;;;9.85;7.78;;;;;;;11.24;50.39;100097.68;1803159;77;21158;-68
2021/01/10 11:52:21;;;;;;;9.60;7.37;;;;;;;11.22;50.38;100103.66;1807776;78;21181;-67